Time;durP1;ratioP1;P1;durP2;ratioP2;P2;SDS_P1;SDS_P2;PMS_P1;PMS_P2;Temp;Humidity;BMP_temperature;BMP_pressure;BME280_temperature;BME280_humidity;BME280_pressure;Samples;Min_cycle;Max_cycle;Signal;HPM_P1;HPM_P2
2024/03/22 00:02:06;;;;;;;7.00;3.73;;;10.00;99.90;;;10.93;100.00;98758.22;4997564;28;20909;-79
2024/03/22 00:04:32;;;;;;;8.70;4.57;;;10.00;99.90;;;10.94;100.00;98754.59;4997767;28;20848;-78
2024/03/22 00:07:00;;;;;;;14.73;4.23;;;10.00;99.90;;;10.88;100.00;98757.91;5002704;28;20687;-79
2024/03/22 00:09:26;;;;;;;10.90;4.43;;;10.00;99.90;;;10.86;100.00;98752.03;5003584;28;20459;-78
2024/03/22 00:11:54;;;;;;;6.80;4.00;;;10.00;99.90;;;10.88;100.00;98750.06;5000659;28;20474;-78
2024/03/22 00:14:21;;;;;;;7.20;4.10;;;10.00;99.90;;;10.89;100.00;98739.44;4998492;28;20538;-78
2024/03/22 00:16:49;;;;;;;9.00;4.50;;;10.00;99.90;;;10.88;100.00;98734.34;4996615;28;20480;-78
2024/03/22 00:19:17;;;;;;;16.53;5.70;;;10.00;99.90;;;10.88;100.00;98731.75;4993937;28;20486;-78
2024/03/22 00:21:44;;;;;;;8.73;5.10;;;10.00;99.90;;;10.83;100.00;98739.31;4992677;28;20859;-78
2024/03/22 00:24:11;;;;;;;9.87;4.60;;;9.90;99.90;;;10.73;100.00;98730.81;4995044;28;20763;-78
2024/03/22 00:26:39;;;;;;;8.07;5.47;;;9.80;99.90;;;10.75;100.00;98731.50;4996684;28;20466;-79
2024/03/22 00:29:05;;;;;;;7.47;4.47;;;9.90;99.90;;;10.68;100.00;98733.16;4997960;28;20465;-78
2024/03/22 00:31:33;;;;;;;8.13;4.40;;;9.80;99.90;;;10.69;100.00;98729.56;4995887;28;20468;-78
2024/03/22 00:33:59;;;;;;;10.20;4.87;;;9.80;99.90;;;10.75;100.00;98734.09;4993669;28;20487;-79
2024/03/22 00:36:28;;;;;;;10.77;4.37;;;9.90;99.90;;;10.76;100.00;98725.28;4997610;28;20473;-79
2024/03/22 00:38:55;;;;;;;8.97;4.53;;;9.90;99.90;;;10.72;100.00;98724.00;5001510;28;20526;-78
2024/03/22 00:41:23;;;;;;;5.83;3.90;;;9.80;99.90;;;10.71;100.00;98722.34;4999152;28;20517;-78
2024/03/22 00:43:49;;;;;;;7.37;4.37;;;9.80;99.90;;;10.76;100.00;98726.06;5010373;28;20489;-78
2024/03/22 00:46:17;;;;;;;10.20;4.90;;;9.90;99.90;;;10.77;100.00;98714.63;4996798;28;20479;-78
2024/03/22 00:48:43;;;;;;;11.13;4.03;;;9.90;99.90;;;10.76;100.00;98718.22;5001701;28;20467;-78
2024/03/22 00:51:11;;;;;;;9.80;3.97;;;9.90;99.90;;;10.76;100.00;98717.44;5001857;28;20985;-78
2024/03/22 00:53:39;;;;;;;7.43;4.37;;;9.90;99.90;;;10.79;100.00;98702.22;4997631;28;21213;-79
2024/03/22 00:56:07;;;;;;;7.40;4.07;;;9.90;99.90;;;10.75;100.00;98703.53;5001260;28;20472;-79
2024/03/22 00:58:34;;;;;;;8.77;4.40;;;9.90;99.90;;;10.74;100.00;98701.91;4996794;28;20476;-79
2024/03/22 01:01:02;;;;;;;9.03;4.47;;;9.90;99.90;;;10.75;100.00;98697.47;5012422;28;20866;-78
2024/03/22 01:03:28;;;;;;;8.10;3.83;;;9.90;99.90;;;10.63;100.00;98689.19;4996700;28;20469;-79
2024/03/22 01:05:57;;;;;;;7.27;4.27;;;9.70;99.90;;;10.60;100.00;98690.38;4999003;28;20484;-78
2024/03/22 01:08:24;;;;;;;5.57;3.70;;;9.70;99.90;;;10.65;100.00;98689.84;5001584;28;20479;-78
2024/03/22 01:10:52;;;;;;;7.87;4.60;;;9.70;99.90;;;10.73;100.00;98686.34;4998522;28;20713;-79
2024/03/22 01:13:19;;;;;;;5.37;3.80;;;9.80;99.90;;;10.74;100.00;98685.38;4999544;28;20469;-78
2024/03/22 01:15:47;;;;;;;7.73;5.03;;;9.80;99.90;;;10.65;100.00;98689.84;4999409;28;20485;-78
2024/03/22 01:18:13;;;;;;;11.30;3.80;;;9.70;99.90;;;10.54;100.00;98685.81;4994812;28;20710;-78
2024/03/22 01:20:42;;;;;;;6.40;3.67;;;9.60;99.90;;;10.48;100.00;98681.25;5011471;28;20490;-79
2024/03/22 01:23:08;;;;;;;6.50;3.90;;;9.60;99.90;;;10.54;100.00;98683.22;4994741;28;20901;-79
2024/03/22 01:25:36;;;;;;;6.27;3.93;;;9.70;99.90;;;10.48;100.00;98675.22;5000096;28;20478;-78
2024/03/22 01:28:05;;;;;;;7.20;3.97;;;9.60;99.90;;;10.40;100.00;98677.88;4994607;28;20469;-79
2024/03/22 01:30:34;;;;;;;10.90;5.20;;;9.60;99.90;;;10.39;100.00;98677.06;5008135;28;20463;-78
2024/03/22 01:33:01;;;;;;;7.07;4.70;;;9.60;99.90;;;10.40;100.00;98677.88;5010040;28;20492;-78
2024/03/22 01:35:28;;;;;;;6.37;4.57;;;9.50;99.90;;;10.45;100.00;98686.00;4996513;28;20864;-79
2024/03/22 01:37:55;;;;;;;7.00;4.30;;;9.40;99.90;;;10.47;100.00;98681.44;4996874;28;20480;-78
2024/03/22 01:40:22;;;;;;;7.13;4.20;;;9.60;99.90;;;10.45;100.00;98676.38;4996872;28;20975;-79
2024/03/22 01:42:54;;;;;;;9.60;4.33;;;9.50;99.90;;;10.41;100.00;98684.75;5013884;28;20472;-78
2024/03/22 01:45:24;;;;;;;11.70;4.13;;;9.50;99.90;;;10.44;100.00;98681.78;4999096;28;20945;-78
2024/03/22 01:47:53;;;;;;;9.60;4.20;;;9.60;99.90;;;10.51;100.00;98673.09;4998679;28;20467;-78
2024/03/22 01:50:21;;;;;;;10.37;3.70;;;9.60;99.90;;;10.52;100.00;98679.94;4998457;28;20468;-78
2024/03/22 01:52:49;;;;;;;7.13;4.03;;;9.60;99.90;;;10.49;100.00;98671.63;5000437;28;20472;-79
2024/03/22 01:55:16;;;;;;;7.50;4.00;;;9.60;99.90;;;10.39;100.00;98671.00;4997634;28;20495;-78
2024/03/22 01:57:44;;;;;;;8.67;4.10;;;9.50;99.90;;;10.29;100.00;98666.00;4999477;28;20489;-78
2024/03/22 02:00:12;;;;;;;17.90;4.03;;;9.40;99.90;;;10.30;100.00;98665.00;4996201;28;20490;-78
2024/03/22 02:02:41;;;;;;;10.13;4.47;;;9.40;99.90;;;10.30;100.00;98667.63;4996179;28;20588;-78
2024/03/22 02:05:15;;;;;;;9.27;3.83;;;9.50;99.90;;;10.31;100.00;98658.78;5000006;28;20888;-78
2024/03/22 02:07:43;;;;;;;5.80;3.50;;;9.40;99.90;;;10.29;100.00;98665.16;4999095;28;20541;-79
2024/03/22 02:10:12;;;;;;;7.00;3.97;;;9.40;99.90;;;10.28;100.00;98656.50;5000192;28;21097;-79
2024/03/22 02:12:40;;;;;;;8.90;4.10;;;9.40;99.90;;;10.19;100.00;98654.94;4997156;28;20834;-78
2024/03/22 02:15:08;;;;;;;5.87;3.93;;;9.30;99.90;;;10.17;100.00;98649.03;5000460;28;20466;-78
2024/03/22 02:17:36;;;;;;;5.73;3.97;;;9.30;99.90;;;10.21;100.00;98652.94;4997281;28;20475;-78
2024/03/22 02:20:06;;;;;;;8.87;3.77;;;9.40;99.90;;;10.25;100.00;98643.78;4993079;28;20486;-79
2024/03/22 02:22:33;;;;;;;6.27;3.43;;;9.40;99.90;;;10.31;100.00;98642.31;4993202;28;20465;-78
2024/03/22 02:25:01;;;;;;;6.70;3.97;;;9.50;99.90;;;10.34;100.00;98645.41;4999921;28;20498;-78
2024/03/22 02:27:28;;;;;;;8.73;4.10;;;9.50;99.90;;;10.34;100.00;98637.56;4997132;28;20476;-79
2024/03/22 02:29:55;;;;;;;9.90;4.27;;;9.40;99.90;;;10.26;100.00;98634.16;4997549;28;20463;-79
2024/03/22 02:32:22;;;;;;;6.97;4.40;;;9.40;99.90;;;10.23;100.00;98635.31;5018126;28;20494;-78
2024/03/22 02:34:49;;;;;;;8.77;3.90;;;9.30;99.90;;;10.19;100.00;98623.56;5003887;28;20477;-78
2024/03/22 02:37:16;;;;;;;7.90;4.77;;;9.30;99.90;;;10.10;100.00;98620.13;5001911;28;21030;-79
2024/03/22 02:39:43;;;;;;;5.77;3.70;;;9.20;99.90;;;10.15;100.00;98621.44;5004331;28;20995;-78
2024/03/22 02:42:12;;;;;;;7.50;3.87;;;9.30;99.90;;;10.14;100.00;98618.03;5000839;28;20504;-79
2024/03/22 02:44:42;;;;;;;6.60;4.13;;;9.30;99.90;;;10.12;100.00;98614.75;5015988;28;20476;-78
2024/03/22 02:47:10;;;;;;;8.23;4.30;;;9.20;99.90;;;10.10;100.00;98624.53;5003555;28;20476;-78
2024/03/22 02:49:39;;;;;;;9.50;5.17;;;9.20;99.90;;;10.15;100.00;98614.44;4998987;28;20867;-78
2024/03/22 02:52:07;;;;;;;7.73;3.77;;;9.20;99.90;;;10.14;100.00;98618.03;5002700;28;20473;-79
2024/03/22 02:54:33;;;;;;;7.60;3.97;;;9.20;99.90;;;10.11;100.00;98615.72;5000056;28;20457;-78
2024/03/22 02:57:01;;;;;;;7.77;4.00;;;9.20;99.90;;;10.15;100.00;98609.19;5016915;28;20498;-79
2024/03/22 02:59:29;;;;;;;6.77;3.47;;;9.30;99.90;;;10.18;100.00;98603.63;5003145;28;20587;-78
2024/03/22 03:01:57;;;;;;;8.20;4.60;;;9.30;99.90;;;10.19;100.00;98610.50;5002777;28;20536;-79
2024/03/22 03:04:23;;;;;;;11.50;3.93;;;9.30;99.90;;;10.21;100.00;98605.91;5002556;28;20460;-79
2024/03/22 03:06:51;;;;;;;7.43;3.70;;;9.40;99.90;;;10.17;100.00;98599.38;4999483;28;20478;-78
2024/03/22 03:09:17;;;;;;;8.00;4.00;;;9.30;99.90;;;10.15;100.00;98596.13;5003003;28;20856;-78
2024/03/22 03:11:45;;;;;;;5.77;3.60;;;9.30;99.90;;;10.19;100.00;98591.38;4995717;28;21337;-79
2024/03/22 03:14:12;;;;;;;9.30;3.20;;;9.30;99.90;;;10.22;100.00;98591.84;4999308;28;20476;-78
2024/03/22 03:16:41;;;;;;;6.13;4.20;;;9.30;99.90;;;10.24;100.00;98595.09;4995543;28;20480;-78
2024/03/22 03:19:07;;;;;;;9.83;3.77;;;9.40;99.90;;;10.23;100.00;98587.44;5000606;28;20479;-79
2024/03/22 03:21:35;;;;;;;8.10;3.90;;;9.40;99.90;;;10.19;100.00;98580.94;4996836;28;20490;-78
2024/03/22 03:24:01;;;;;;;6.00;4.00;;;9.40;99.90;;;10.24;100.00;98584.66;4998874;28;20511;-79
2024/03/22 03:26:29;;;;;;;5.80;3.70;;;9.40;99.90;;;10.19;100.00;98586.16;4995912;28;20858;-78
2024/03/22 03:28:55;;;;;;;5.37;3.47;;;9.30;99.90;;;10.25;100.00;98578.44;5001864;28;20674;-78
2024/03/22 03:31:23;;;;;;;7.23;3.63;;;9.40;99.90;;;10.28;100.00;98574.66;5000446;28;20533;-78
2024/03/22 03:33:51;;;;;;;6.17;4.00;;;9.40;99.90;;;10.32;100.00;98570.72;5006378;28;20509;-78
2024/03/22 03:36:19;;;;;;;7.80;3.73;;;9.50;99.90;;;10.23;100.00;98571.78;5005582;28;20473;-78
2024/03/22 03:38:45;;;;;;;9.87;4.07;;;9.30;99.90;;;10.24;100.00;98566.34;5003429;28;20481;-78
2024/03/22 03:41:13;;;;;;;20.40;4.40;;;9.40;99.90;;;10.21;100.00;98558.84;5002277;28;20499;-78
2024/03/22 03:43:40;;;;;;;6.10;3.97;;;9.30;99.90;;;10.12;100.00;98565.09;5006790;28;20794;-79
2024/03/22 03:46:07;;;;;;;8.20;4.00;;;9.20;99.90;;;10.08;100.00;98556.78;5022508;28;20680;-78
2024/03/22 03:48:34;;;;;;;6.47;4.00;;;9.20;99.90;;;10.12;100.00;98546.81;5002032;28;20483;-78
2024/03/22 03:51:03;;;;;;;7.30;4.13;;;9.20;99.90;;;10.17;100.00;98547.13;5023617;28;20846;-79
2024/03/22 03:53:30;;;;;;;8.37;4.37;;;9.30;99.90;;;10.24;100.00;98548.06;5003257;28;21194;-79
2024/03/22 03:55:57;;;;;;;10.83;3.87;;;9.40;99.90;;;10.28;100.00;98536.28;5003681;28;20467;-78
2024/03/22 03:58:24;;;;;;;4.67;2.97;;;9.40;99.90;;;10.31;100.00;98538.53;5000710;28;20478;-79
2024/03/22 04:00:51;;;;;;;8.60;3.73;;;9.30;99.90;;;10.27;100.00;98532.06;5000335;28;21353;-77
2024/03/22 04:03:19;;;;;;;5.67;3.47;;;9.40;99.90;;;10.23;100.00;98530.78;5000845;28;20471;-86
2024/03/22 04:05:46;;;;;;;11.60;5.60;;;9.40;99.90;;;10.22;100.00;98529.13;5002523;28;20480;-77
2024/03/22 04:08:14;;;;;;;10.63;4.47;;;9.30;99.90;;;10.23;100.00;98527.34;5002173;28;20463;-78
2024/03/22 04:10:42;;;;;;;6.70;3.90;;;9.30;99.90;;;10.16;100.00;98535.06;5002134;28;20971;-84
2024/03/22 04:13:09;;;;;;;6.67;3.90;;;9.30;99.90;;;10.10;100.00;98533.06;5016484;28;20476;-79
2024/03/22 04:15:36;;;;;;;5.77;3.70;;;9.20;99.90;;;10.09;100.00;98528.84;5003265;28;20461;-77
2024/03/22 04:18:03;;;;;;;4.97;3.23;;;9.30;99.90;;;10.08;100.00;98528.03;5003173;28;20527;-76
2024/03/22 04:20:31;;;;;;;7.90;3.83;;;9.20;99.90;;;10.08;100.00;98516.78;5001184;28;20489;-76
2024/03/22 04:22:57;;;;;;;6.87;3.33;;;9.20;99.90;;;10.10;100.00;98530.47;5002246;28;20488;-77
2024/03/22 04:25:26;;;;;;;7.33;4.10;;;9.20;99.90;;;10.09;100.00;98519.22;5001560;28;20493;-77
2024/03/22 04:27:53;;;;;;;5.50;3.27;;;9.20;99.90;;;10.09;100.00;98523.63;5005763;28;20697;-76
2024/03/22 04:30:20;;;;;;;6.43;3.30;;;9.20;99.90;;;10.11;100.00;98530.31;5001357;28;20505;-78
2024/03/22 04:32:47;;;;;;;6.67;3.60;;;9.30;99.90;;;10.11;100.00;98519.84;5002389;28;20497;-76
2024/03/22 04:35:15;;;;;;;4.80;3.20;;;9.20;99.90;;;10.09;100.00;98527.06;5000946;28;20468;-77
2024/03/22 04:37:42;;;;;;;5.57;3.27;;;9.20;99.90;;;10.11;100.00;98522.47;5003693;28;20507;-77
2024/03/22 04:40:12;;;;;;;5.23;3.27;;;9.20;99.90;;;10.13;100.00;98535.38;5017669;28;20509;-77
2024/03/22 04:42:41;;;;;;;6.37;3.27;;;9.20;99.90;;;10.10;100.00;98535.69;5003340;28;20517;-76
2024/03/22 04:45:09;;;;;;;8.57;3.57;;;9.30;99.90;;;10.08;100.00;98542.91;4999620;28;20476;-76
2024/03/22 04:47:37;;;;;;;8.67;4.40;;;9.20;99.90;;;10.02;100.00;98556.66;4999841;28;20468;-77
2024/03/22 04:50:06;;;;;;;7.20;3.43;;;9.20;99.90;;;9.99;100.00;98549.16;5003444;28;20473;-76
2024/03/22 04:52:32;;;;;;;8.20;3.80;;;9.20;99.90;;;10.01;100.00;98552.41;5015442;28;20479;-77
2024/03/22 04:55:01;;;;;;;7.50;4.00;;;9.10;99.90;;;10.02;100.00;98546.19;4996348;28;20981;-83
2024/03/22 04:57:28;;;;;;;6.37;2.97;;;9.10;99.90;;;9.97;100.00;98549.31;4998825;28;20500;-77
2024/03/22 04:59:57;;;;;;;6.13;3.43;;;9.10;99.90;;;9.99;100.00;98544.75;4998969;28;20478;-76
2024/03/22 05:02:23;;;;;;;5.60;3.30;;;9.10;99.90;;;9.95;100.00;98550.47;5012118;28;20991;-76
2024/03/22 05:04:51;;;;;;;8.10;3.37;;;9.10;99.90;;;9.96;100.00;98539.06;5000536;28;20736;-76
2024/03/22 05:07:17;;;;;;;6.30;3.60;;;9.10;99.90;;;9.98;100.00;98547.53;5001596;28;20485;-76
2024/03/22 05:09:44;;;;;;;6.70;3.50;;;9.10;99.90;;;9.98;100.00;98542.31;5011038;28;20474;-77
2024/03/22 05:12:11;;;;;;;7.00;3.77;;;9.10;99.90;;;9.98;100.00;98537.06;4999599;28;20482;-76
2024/03/22 05:14:38;;;;;;;5.10;3.40;;;9.10;99.90;;;10.03;100.00;98534.78;5004605;28;20478;-76
2024/03/22 05:17:06;;;;;;;3.80;2.87;;;9.20;99.90;;;10.06;100.00;98531.81;4997196;28;20466;-76
2024/03/22 05:19:34;;;;;;;5.17;2.80;;;9.20;99.90;;;10.04;100.00;98531.16;5004124;28;20473;-76
2024/03/22 05:22:01;;;;;;;6.77;3.43;;;9.20;99.90;;;10.01;100.00;98524.47;5001262;28;20509;-77
2024/03/22 05:24:28;;;;;;;6.20;3.53;;;9.20;99.90;;;10.01;100.00;98521.88;4999941;28;20522;-77
2024/03/22 05:26:55;;;;;;;8.17;2.90;;;9.20;99.90;;;10.05;100.00;98517.94;5001223;28;20470;-76
2024/03/22 05:29:22;;;;;;;4.97;2.87;;;9.20;99.90;;;10.09;100.00;98510.56;4998761;28;20857;-77
2024/03/22 05:31:51;;;;;;;3.50;2.90;;;9.20;99.90;;;10.07;100.00;98510.72;5012047;28;20482;-77
2024/03/22 05:34:19;;;;;;;6.47;3.27;;;9.10;99.90;;;10.08;100.00;98517.59;4996366;28;20961;-76
2024/03/22 05:36:47;;;;;;;17.47;7.93;;;9.20;99.90;;;10.05;100.00;98522.34;4992548;28;20472;-77
2024/03/22 05:39:14;;;;;;;6.77;4.47;;;9.20;99.90;;;10.07;100.00;98529.03;4995469;28;20469;-77
2024/03/22 05:41:42;;;;;;;5.00;3.10;;;9.20;99.90;;;10.10;100.00;98520.00;4995761;28;21788;-78
2024/03/22 05:44:08;;;;;;;11.27;3.13;;;9.30;99.90;;;10.10;100.00;98509.56;4992548;28;20467;-77
2024/03/22 05:46:36;;;;;;;9.20;3.40;;;9.30;99.90;;;10.09;100.00;98516.63;4987460;28;20480;-77
2024/03/22 05:49:02;;;;;;;8.63;3.50;;;9.30;99.90;;;10.13;100.00;98515.25;5016356;28;20816;-76
2024/03/22 05:51:31;;;;;;;4.10;2.77;;;9.30;99.90;;;10.17;100.00;98525.41;5006035;28;20465;-76
2024/03/22 05:53:58;;;;;;;7.97;3.33;;;9.30;99.90;;;10.20;100.00;98518.06;5006279;28;20471;-77
2024/03/22 05:56:25;;;;;;;6.27;3.00;;;9.30;99.90;;;10.21;100.00;98517.03;5003600;28;20506;-76
2024/03/22 05:58:52;;;;;;;8.93;3.93;;;9.30;99.90;;;10.20;100.00;98512.00;5001168;28;20485;-76
2024/03/22 06:01:19;;;;;;;8.20;3.33;;;9.30;99.90;;;10.18;100.00;98512.16;5005461;28;20485;-76
2024/03/22 06:03:46;;;;;;;7.70;3.50;;;9.30;99.90;;;10.20;100.00;98509.38;5000863;28;20471;-76
2024/03/22 06:06:13;;;;;;;5.17;3.23;;;9.30;99.90;;;10.15;100.00;98511.69;4999963;28;20482;-76
2024/03/22 06:08:43;;;;;;;4.93;3.33;;;9.20;99.90;;;10.15;100.00;98512.50;5006528;28;20466;-76
2024/03/22 06:11:11;;;;;;;5.93;3.50;;;9.30;99.90;;;10.14;100.00;98508.25;5019224;28;20481;-76
2024/03/22 06:13:37;;;;;;;8.03;3.47;;;9.30;99.90;;;10.13;100.00;98504.00;5003287;28;20472;-76
2024/03/22 06:16:06;;;;;;;8.50;3.13;;;9.30;99.90;;;10.10;100.00;98505.16;5003058;28;20483;-76
2024/03/22 06:18:32;;;;;;;3.60;2.63;;;9.30;99.90;;;10.13;100.00;98509.25;5006151;28;20908;-76
2024/03/22 06:21:00;;;;;;;6.10;3.20;;;9.20;99.90;;;10.15;100.00;98512.50;5003862;28;20493;-76
2024/03/22 06:23:26;;;;;;;5.80;3.20;;;9.20;99.90;;;10.19;100.00;98511.19;5003379;28;20471;-75
2024/03/22 06:25:56;;;;;;;5.23;3.30;;;9.30;99.90;;;10.22;100.00;98502.19;5005032;28;20472;-77
2024/03/22 06:28:23;;;;;;;7.57;4.03;;;9.30;99.90;;;10.23;100.00;98496.78;5000378;28;20482;-77
2024/03/22 06:30:51;;;;;;;5.20;3.20;;;9.30;99.90;;;10.27;100.00;98494.66;5000055;28;20500;-76
2024/03/22 06:33:18;;;;;;;19.87;3.60;;;9.40;99.90;;;10.28;100.00;98489.22;5001099;28;20464;-77
2024/03/22 06:35:45;;;;;;;3.63;2.70;;;9.40;99.90;;;10.30;100.00;98489.88;5005369;28;20469;-77
2024/03/22 06:38:12;;;;;;;7.30;3.40;;;9.50;99.90;;;10.33;100.00;98491.34;5003570;28;20499;-76
2024/03/22 06:40:39;;;;;;;3.50;3.00;;;9.50;99.90;;;10.32;100.00;98490.50;5006620;28;20472;-76
2024/03/22 06:43:07;;;;;;;7.30;2.93;;;9.40;99.90;;;10.34;100.00;98480.72;5003034;28;20488;-76
2024/03/22 06:45:34;;;;;;;3.60;2.80;;;9.50;99.90;;;10.35;100.00;98482.31;5014950;28;20479;-76
2024/03/22 06:48:01;;;;;;;6.43;3.50;;;9.50;99.90;;;10.39;100.00;98478.38;5003749;28;20979;-76
2024/03/22 06:50:28;;;;;;;4.90;3.50;;;9.50;99.90;;;10.42;100.00;98471.97;5003252;28;20476;-76
2024/03/22 06:52:55;;;;;;;7.43;3.10;;;9.60;99.90;;;10.42;100.00;98478.03;5004248;28;20473;-76
2024/03/22 06:55:23;;;;;;;5.37;2.90;;;9.50;99.90;;;10.46;100.00;98474.06;5002363;28;20951;-76
2024/03/22 06:57:51;;;;;;;14.33;3.03;;;9.50;99.90;;;10.45;100.00;98469.00;5003643;28;20894;-77
2024/03/22 07:00:20;;;;;;;14.20;3.90;;;9.50;99.90;;;10.48;100.00;98466.84;5004776;28;20462;-76
2024/03/22 07:02:47;;;;;;;17.23;4.77;;;9.60;99.90;;;10.49;100.00;98468.47;5018025;28;20509;-76
2024/03/22 07:05:14;;;;;;;31.97;5.03;;;9.60;99.90;;;10.55;100.00;98461.75;5001854;28;20487;-76
2024/03/22 07:07:41;;;;;;;14.03;4.37;;;9.70;99.90;;;10.59;100.00;98449.94;5019226;28;20469;-77
2024/03/22 07:10:09;;;;;;;9.57;3.83;;;9.80;99.90;;;10.57;100.00;98455.34;5002759;28;20477;-76
2024/03/22 07:12:36;;;;;;;4.87;3.27;;;9.70;99.90;;;10.62;100.00;98457.41;5018419;28;20527;-76
2024/03/22 07:15:04;;;;;;;11.27;4.57;;;9.70;99.90;;;10.65;100.00;98461.50;5003397;28;20480;-77
2024/03/22 07:17:32;;;;;;;6.67;3.83;;;9.70;99.90;;;10.66;100.00;98460.50;5004629;28;20460;-76
2024/03/22 07:19:59;;;;;;;13.90;4.17;;;9.80;99.90;;;10.68;100.00;98461.16;5006992;28;20485;-76
2024/03/22 07:22:26;;;;;;;7.13;3.17;;;9.80;99.90;;;10.72;100.00;98457.19;5023284;28;20840;-76
2024/03/22 07:24:55;;;;;;;11.73;4.00;;;9.80;99.90;;;10.76;100.00;98448.78;5003069;28;20477;-76
2024/03/22 07:27:21;;;;;;;9.47;3.43;;;9.90;99.90;;;10.79;100.00;98447.66;5010022;28;20489;-76
2024/03/22 07:29:49;;;;;;;6.07;3.70;;;9.90;99.90;;;10.85;100.00;98447.75;5001253;28;21009;-76
2024/03/22 07:32:15;;;;;;;6.57;4.20;;;10.00;99.90;;;10.88;100.00;98447.38;5007967;28;20503;-76
2024/03/22 07:34:47;;;;;;;15.30;3.93;;;10.00;99.90;;;10.94;100.00;98438.81;5009768;28;20470;-76
2024/03/22 07:37:14;;;;;;;8.23;3.60;;;10.00;99.90;;;10.98;100.00;98442.69;5004252;28;20472;-76
2024/03/22 07:39:41;;;;;;;4.97;3.40;;;10.10;99.90;;;11.03;100.00;98436.94;5004249;28;21019;-76
2024/03/22 07:42:08;;;;;;;5.30;3.50;;;10.20;99.90;;;11.05;100.00;98440.16;5006065;28;20488;-76
2024/03/22 07:44:35;;;;;;;7.13;3.50;;;10.10;99.90;;;11.04;100.00;98428.88;5003633;28;20465;-76
2024/03/22 07:47:02;;;;;;;7.80;3.40;;;10.20;99.90;;;11.07;100.00;98430.34;5009035;28;20541;-77
2024/03/22 07:49:31;;;;;;;9.50;3.40;;;10.20;99.90;;;11.13;100.00;98427.00;5003368;28;20493;-77
2024/03/22 07:51:59;;;;;;;6.40;3.40;;;10.30;99.90;;;11.16;100.00;98424.03;5003114;28;20821;-76
2024/03/22 07:54:26;;;;;;;11.90;3.83;;;10.30;99.90;;;11.19;100.00;98418.41;5003842;28;20476;-77
2024/03/22 07:56:53;;;;;;;5.40;3.50;;;10.30;99.90;;;11.23;100.00;98419.69;5020630;28;20593;-76
2024/03/22 07:59:20;;;;;;;15.97;2.90;;;10.40;99.90;;;11.27;100.00;98410.47;5005574;28;20518;-76
2024/03/22 08:01:48;;;;;;;7.77;2.83;;;10.40;99.90;;;11.29;100.00;98408.47;4999652;28;21018;-76
2024/03/22 08:04:15;;;;;;;8.63;4.80;;;10.50;99.90;;;11.32;100.00;98397.63;5003773;28;20560;-76
2024/03/22 08:06:42;;;;;;;20.10;7.90;;;10.60;99.90;;;11.39;100.00;98387.25;5005249;28;20470;-76
2024/03/22 08:09:11;;;;;;;15.33;6.67;;;10.60;99.90;;;11.42;100.00;98390.31;5006524;28;20469;-76
2024/03/22 08:11:37;;;;;;;15.50;5.90;;;10.60;99.90;;;11.49;100.00;98393.00;4999934;28;20483;-77
2024/03/22 08:14:05;;;;;;;8.10;4.70;;;10.60;99.90;;;11.54;100.00;98388.84;5005813;28;20482;-76
2024/03/22 08:16:31;;;;;;;8.50;3.93;;;10.70;99.90;;;11.63;100.00;98393.97;5002094;28;20466;-76
2024/03/22 08:18:59;;;;;;;8.87;3.37;;;10.80;99.90;;;11.65;100.00;98390.19;5006222;28;20868;-76
2024/03/22 08:21:25;;;;;;;7.10;4.00;;;10.90;99.90;;;11.67;100.00;98388.16;5002214;28;21000;-76
2024/03/22 08:23:53;;;;;;;7.50;4.37;;;11.00;99.90;;;11.72;100.00;98392.88;5004665;28;20502;-76
2024/03/22 08:26:21;;;;;;;9.20;3.73;;;11.00;99.90;;;11.79;100.00;98394.59;5001585;28;20546;-76
2024/03/22 08:28:49;;;;;;;10.83;3.60;;;11.00;99.90;;;11.85;100.00;98387.78;5004212;28;20470;-77
2024/03/22 08:31:16;;;;;;;6.30;3.73;;;11.10;99.90;;;11.89;100.00;98384.59;5017955;28;20498;-76
2024/03/22 08:33:44;;;;;;;6.40;3.53;;;11.20;99.90;;;11.96;100.00;98384.66;5018444;28;20470;-77
2024/03/22 08:36:10;;;;;;;8.60;4.60;;;11.30;99.90;;;11.98;100.00;98388.72;5003077;28;20471;-76
2024/03/22 08:38:38;;;;;;;5.43;3.70;;;11.30;99.90;;;12.03;100.00;98382.94;5000583;28;20476;-77
2024/03/22 08:41:04;;;;;;;7.10;4.00;;;11.30;99.90;;;12.12;100.00;98384.41;5004623;28;20470;-76
2024/03/22 08:43:33;;;;;;;7.40;4.07;;;11.40;99.90;;;12.19;100.00;98385.28;5006762;28;20506;-76
2024/03/22 08:46:00;;;;;;;11.93;4.73;;;11.50;99.90;;;12.25;100.00;98374.03;5000013;28;21267;-77
2024/03/22 08:48:27;;;;;;;7.00;4.27;;;11.60;99.90;;;12.29;100.00;98370.03;5001294;28;20878;-76
2024/03/22 08:50:53;;;;;;;6.00;3.50;;;11.60;99.90;;;12.35;100.00;98371.91;5003883;28;20466;-76
2024/03/22 08:53:21;;;;;;;9.27;4.57;;;11.60;99.90;;;12.37;100.00;98362.03;5001089;28;20920;-76
2024/03/22 08:55:48;;;;;;;8.00;4.60;;;11.70;99.90;;;12.43;100.00;98369.13;4998598;28;20474;-77
2024/03/22 08:58:17;;;;;;;11.20;4.17;;;11.80;99.90;;;12.50;100.00;98367.38;4999107;28;20927;-76
2024/03/22 09:00:45;;;;;;;5.80;3.70;;;11.90;99.90;;;12.54;100.00;98366.00;5003543;28;20477;-76
2024/03/22 09:03:14;;;;;;;7.67;3.87;;;11.90;99.90;;;12.59;100.00;98361.00;5004519;28;20502;-77
2024/03/22 09:05:41;;;;;;;6.10;3.63;;;11.90;99.90;;;12.65;100.00;98353.34;5006402;28;20478;-76
2024/03/22 09:08:09;;;;;;;6.77;4.00;;;12.00;99.90;;;12.68;100.00;98363.44;4999806;28;20866;-76
2024/03/22 09:10:36;;;;;;;8.60;4.37;;;12.10;99.90;;;12.72;100.00;98356.81;5009039;28;20480;-77
2024/03/22 09:13:03;;;;;;;6.10;3.90;;;12.10;99.90;;;12.73;100.00;98346.13;5001371;28;20471;-77
2024/03/22 09:15:30;;;;;;;7.13;3.50;;;12.20;99.90;;;12.78;100.00;98354.22;5004389;28;20472;-77
2024/03/22 09:17:58;;;;;;;7.00;4.20;;;12.10;99.90;;;12.83;100.00;98348.41;5006101;28;20464;-76
2024/03/22 09:20:26;;;;;;;5.83;3.30;;;12.10;99.90;;;12.87;100.00;98344.41;5002942;28;20983;-77
2024/03/22 09:22:52;;;;;;;6.93;3.67;;;12.20;99.90;;;12.94;100.00;98340.00;5006764;28;20498;-77
2024/03/22 09:25:20;;;;;;;6.70;3.80;;;12.30;99.90;;;12.97;100.00;98342.22;5003491;28;20475;-77
2024/03/22 09:27:46;;;;;;;8.53;4.20;;;12.30;99.90;;;13.02;100.00;98334.56;5006121;28;20980;-76
2024/03/22 09:30:15;;;;;;;9.47;4.43;;;12.30;99.90;;;13.07;100.00;98329.53;5005644;28;20472;-77
2024/03/22 09:32:42;;;;;;;6.67;3.43;;;12.30;99.90;;;13.14;100.00;98334.84;5019836;28;20466;-76
2024/03/22 09:35:14;;;;;;;6.50;3.70;;;12.40;99.90;;;13.19;100.00;98328.00;5006104;28;20844;-77
2024/03/22 09:37:41;;;;;;;7.43;4.00;;;12.50;99.90;;;13.22;100.00;98322.38;5005613;28;20480;-77
2024/03/22 09:40:10;;;;;;;7.30;4.10;;;12.50;99.90;;;13.29;100.00;98327.66;5007358;28;20463;-76
2024/03/22 09:42:39;;;;;;;7.57;3.90;;;12.60;99.90;;;13.28;100.00;98323.41;5006055;28;20996;-76
2024/03/22 09:45:11;;;;;;;10.10;3.73;;;12.50;99.90;;;13.32;100.00;98322.81;5001260;28;20470;-76
2024/03/22 09:47:38;;;;;;;5.43;3.77;;;12.60;99.90;;;13.38;100.00;98318.56;5004751;28;20476;-76
2024/03/22 09:50:10;;;;;;;7.10;3.90;;;12.70;99.90;;;13.42;100.00;98325.88;5003947;28;20521;-76
2024/03/22 09:52:38;;;;;;;6.20;3.60;;;12.70;99.90;;;13.49;100.00;98320.63;5005485;28;21466;-77
2024/03/22 09:55:08;;;;;;;5.50;4.00;;;12.80;99.90;;;13.51;100.00;98308.91;4999884;28;20817;-77
2024/03/22 09:57:39;;;;;;;6.80;3.77;;;12.80;99.90;;;13.57;100.00;98320.47;5006228;28;20873;-77
2024/03/22 10:00:09;;;;;;;9.23;3.67;;;12.90;99.90;;;13.63;100.00;98316.22;5015213;28;20455;-76
2024/03/22 10:02:38;;;;;;;9.03;3.93;;;13.00;99.90;;;13.67;100.00;98317.44;5000423;28;20497;-77
2024/03/22 10:05:06;;;;;;;10.80;5.03;;;12.90;99.90;;;13.70;100.00;98314.41;5000029;28;20470;-76
2024/03/22 10:07:36;;;;;;;12.50;5.77;;;13.00;99.90;;;13.78;100.00;98314.22;5003657;28;20483;-77
2024/03/22 10:10:05;;;;;;;11.27;5.70;;;13.00;99.90;;;13.81;100.00;98309.38;4998594;28;20482;-76
2024/03/22 10:12:32;;;;;;;9.87;5.10;;;13.10;99.90;;;13.84;100.00;98298.44;5015083;28;20579;-77
2024/03/22 10:14:59;;;;;;;11.57;6.50;;;13.10;99.90;;;13.90;100.00;98299.47;5002056;28;20471;-77
2024/03/22 10:17:28;;;;;;;12.87;6.00;;;13.30;99.90;;;13.97;100.00;98290.56;5000472;28;20479;-77